Time;durP1;ratioP1;P1;durP2;ratioP2;P2;SDS_P1;SDS_P2;PMS_P1;PMS_P2;Temp;Humidity;BMP_temperature;BMP_pressure;BME280_temperature;BME280_humidity;BME280_pressure;Samples;Min_cycle;Max_cycle;Signal;HPM_P1;HPM_P2
2023/07/13 00:01:59;;;;;;;12.35;11.05;;;20.50;99.90;;;;;;5248236;28;20503;-71
2023/07/13 00:04:30;;;;;;;11.57;10.38;;;20.40;99.90;;;;;;5249321;28;20059;-71
2023/07/13 00:07:01;;;;;;;12.18;11.10;;;20.40;99.90;;;;;;5249134;28;20024;-71
2023/07/13 00:09:32;;;;;;;13.00;11.68;;;20.40;99.90;;;;;;5249110;28;20025;-70
2023/07/13 00:12:03;;;;;;;11.82;10.70;;;20.40;99.90;;;;;;5249101;28;20397;-71
2023/07/13 00:14:34;;;;;;;12.75;11.45;;;20.40;99.90;;;;;;5249001;28;20013;-71
2023/07/13 00:17:05;;;;;;;12.90;11.75;;;20.60;99.90;;;;;;5248885;28;20057;-71
2023/07/13 00:19:36;;;;;;;13.32;12.15;;;20.60;99.90;;;;;;5248942;28;20372;-70
2023/07/13 00:22:07;;;;;;;14.60;12.55;;;20.30;99.90;;;;;;5248831;28;20036;-71
2023/07/13 00:24:41;;;;;;;13.50;12.32;;;20.30;99.90;;;;;;5248898;28;20157;-71
2023/07/13 00:27:12;;;;;;;21.25;12.80;;;20.20;99.90;;;;;;5248774;28;20469;-71
2023/07/13 00:29:43;;;;;;;22.73;15.30;;;20.30;99.90;;;;;;5248597;28;20027;-70
2023/07/13 00:32:14;;;;;;;13.27;12.07;;;20.30;99.90;;;;;;5248373;28;20048;-70
2023/07/13 00:34:45;;;;;;;15.35;12.02;;;20.30;99.90;;;;;;5248502;28;20021;-71
2023/07/13 00:37:16;;;;;;;14.57;13.18;;;20.30;99.90;;;;;;5247224;28;20549;-71
2023/07/13 00:39:46;;;;;;;13.98;12.63;;;20.30;99.90;;;;;;5248510;28;20415;-70
2023/07/13 00:42:17;;;;;;;14.57;13.27;;;20.00;99.90;;;;;;5248568;28;20122;-71
2023/07/13 00:45:12;;;;;;;15.23;13.90;;;20.20;99.90;;;;;;5248456;28;20032;-71
2023/07/13 00:47:44;;;;;;;14.10;12.65;;;20.10;99.90;;;;;;5248579;28;20473;-71
2023/07/13 00:50:18;;;;;;;15.05;13.52;;;20.10;99.90;;;;;;5248312;28;20031;-71
2023/07/13 00:52:53;;;;;;;16.15;13.38;;;20.20;99.90;;;;;;5248303;28;20028;-71
2023/07/13 00:55:24;;;;;;;14.65;13.07;;;20.10;99.90;;;;;;5248328;28;20032;-71
2023/07/13 00:57:56;;;;;;;15.82;14.13;;;20.10;99.90;;;;;;5248167;28;20028;-71
2023/07/13 01:00:29;;;;;;;14.38;13.07;;;20.30;99.90;;;;;;5248047;28;20027;-71
2023/07/13 01:03:04;;;;;;;14.73;13.15;;;20.20;99.90;;;;;;5247774;28;20515;-71
2023/07/13 01:05:36;;;;;;;14.82;13.43;;;20.00;99.90;;;;;;5248210;28;20020;-71
2023/07/13 01:08:07;;;;;;;14.50;13.20;;;20.20;99.90;;;;;;5248025;28;20020;-71
2023/07/13 01:10:38;;;;;;;15.77;13.40;;;20.10;99.90;;;;;;5247773;28;20036;-71
2023/07/13 01:13:10;;;;;;;16.60;14.95;;;20.10;99.90;;;;;;5246841;28;20027;-71
2023/07/13 01:15:44;;;;;;;17.38;15.65;;;20.10;99.90;;;;;;5247850;28;20039;-71
2023/07/13 01:18:26;;;;;;;16.88;14.80;;;20.00;99.90;;;;;;5247744;28;20023;-71
2023/07/13 01:21:03;;;;;;;16.70;15.05;;;20.10;99.90;;;;;;5247762;28;20104;-71
2023/07/13 01:23:34;;;;;;;16.77;15.13;;;20.10;99.90;;;;;;5247611;28;20028;-71
2023/07/13 01:26:04;;;;;;;18.63;16.20;;;19.90;99.90;;;;;;5247532;28;20032;-71
2023/07/13 01:28:36;;;;;;;17.73;15.85;;;20.00;99.90;;;;;;5247503;28;20032;-71
2023/07/13 01:31:09;;;;;;;16.88;15.15;;;20.10;99.90;;;;;;5247291;28;20048;-71
2023/07/13 01:33:41;;;;;;;21.05;17.08;;;20.10;99.90;;;;;;5247391;28;20111;-71
2023/07/13 01:36:11;;;;;;;17.38;15.57;;;19.90;99.90;;;;;;5247271;28;20032;-70
2023/07/13 01:38:42;;;;;;;17.08;15.38;;;19.70;99.90;;;;;;5247410;28;20038;-70
2023/07/13 01:41:13;;;;;;;17.25;15.52;;;19.90;99.90;;;;;;5247504;28;20430;-71
2023/07/13 01:43:44;;;;;;;17.08;14.93;;;19.90;99.90;;;;;;5247571;28;20020;-71
2023/07/13 01:46:14;;;;;;;19.98;17.92;;;19.90;99.90;;;;;;5247412;28;20039;-71
2023/07/13 01:48:45;;;;;;;18.92;16.98;;;19.90;99.90;;;;;;5247536;28;20025;-70
2023/07/13 01:51:19;;;;;;;17.77;15.93;;;19.80;99.90;;;;;;5247497;28;20041;-71
2023/07/13 01:53:50;;;;;;;18.23;15.98;;;19.90;99.90;;;;;;5247492;28;20032;-71
2023/07/13 01:56:20;;;;;;;17.80;16.08;;;20.00;99.90;;;;;;5247361;28;20118;-70
2023/07/13 01:58:52;;;;;;;17.60;15.90;;;20.00;99.90;;;;;;5247243;28;20100;-71
2023/07/13 02:01:23;;;;;;;19.50;17.50;;;19.60;99.90;;;;;;5247085;28;20030;-71
2023/07/13 02:03:54;;;;;;;20.00;17.42;;;19.70;99.90;;;;;;5247259;28;20481;-71
2023/07/13 02:06:25;;;;;;;18.33;16.25;;;19.70;99.90;;;;;;5247120;28;20036;-71
2023/07/13 02:08:55;;;;;;;17.98;15.43;;;19.80;99.90;;;;;;5247067;28;20503;-71
2023/07/13 02:11:33;;;;;;;18.55;15.90;;;19.80;99.90;;;;;;5247120;28;20447;-71
2023/07/13 02:14:04;;;;;;;19.13;17.25;;;19.60;99.90;;;;;;5247355;28;20089;-71
2023/07/13 02:16:34;;;;;;;17.80;15.90;;;19.80;99.90;;;;;;5246935;28;20040;-71
2023/07/13 02:19:06;;;;;;;19.45;17.10;;;19.80;99.90;;;;;;5247201;28;20392;-71
2023/07/13 02:21:37;;;;;;;17.73;15.93;;;19.80;99.90;;;;;;5246892;28;20029;-71
2023/07/13 02:24:07;;;;;;;20.50;16.75;;;19.80;99.90;;;;;;5246912;28;20042;-71
2023/07/13 02:26:38;;;;;;;21.75;17.42;;;19.70;99.90;;;;;;5251012;28;20029;-71
2023/07/13 02:29:09;;;;;;;18.08;15.52;;;19.70;99.90;;;;;;5250925;28;20032;-70
2023/07/13 02:31:40;;;;;;;18.85;16.95;;;19.70;99.90;;;;;;5250834;28;20043;-71
2023/07/13 02:34:11;;;;;;;19.83;17.98;;;19.60;99.90;;;;;;5250991;28;20040;-71
2023/07/13 02:36:42;;;;;;;19.90;18.08;;;19.40;99.90;;;;;;5250826;28;20036;-72
2023/07/13 02:39:13;;;;;;;19.77;17.70;;;19.50;99.90;;;;;;5250953;28;20028;-71
2023/07/13 02:41:44;;;;;;;19.55;17.45;;;19.50;99.90;;;;;;5250716;28;20029;-72
2023/07/13 02:44:15;;;;;;;19.27;17.48;;;19.50;99.90;;;;;;5250803;28;20537;-71
2023/07/13 02:46:46;;;;;;;18.95;17.05;;;19.60;99.90;;;;;;5250544;28;20107;-70
2023/07/13 02:49:17;;;;;;;21.73;16.70;;;19.60;99.90;;;;;;5250700;28;20413;-71
2023/07/13 02:51:48;;;;;;;19.13;17.27;;;19.70;99.90;;;;;;5250397;28;20549;-71
2023/07/13 02:54:19;;;;;;;18.65;16.92;;;19.70;99.90;;;;;;5250591;28;20060;-70
2023/07/13 02:56:49;;;;;;;22.52;18.63;;;19.40;99.90;;;;;;5250598;28;20029;-72
2023/07/13 02:59:20;;;;;;;19.00;17.10;;;19.50;99.90;;;;;;5250501;28;20037;-71
2023/07/13 03:01:51;;;;;;;18.60;16.70;;;19.50;99.90;;;;;;5250077;28;20333;-71
2023/07/13 03:04:22;;;;;;;19.88;17.88;;;19.60;99.90;;;;;;5250459;28;20743;-71
2023/07/13 03:06:57;;;;;;;19.25;17.25;;;19.80;99.90;;;;;;5250271;28;20034;-71
2023/07/13 03:09:28;;;;;;;19.80;17.73;;;19.60;99.90;;;;;;5250256;28;20511;-70
2023/07/13 03:11:59;;;;;;;18.77;16.90;;;19.50;99.90;;;;;;5250094;28;20033;-71
2023/07/13 03:14:30;;;;;;;19.65;17.55;;;19.50;99.90;;;;;;5250210;28;20028;-70
2023/07/13 03:17:01;;;;;;;20.83;18.73;;;19.60;99.90;;;;;;5250127;28;20115;-72
2023/07/13 03:19:31;;;;;;;19.73;17.67;;;19.60;99.90;;;;;;5250066;28;20167;-71
2023/07/13 03:22:03;;;;;;;20.58;17.58;;;19.80;99.90;;;;;;5249945;28;20040;-71
2023/07/13 03:24:34;;;;;;;18.65;16.75;;;19.80;99.90;;;;;;5249958;28;20516;-71
2023/07/13 03:27:06;;;;;;;18.60;16.70;;;19.80;99.90;;;;;;5249987;28;20040;-72
2023/07/13 03:29:36;;;;;;;19.20;17.25;;;19.80;99.90;;;;;;5249771;28;20033;-70
2023/07/13 03:32:08;;;;;;;19.10;16.95;;;19.90;99.90;;;;;;5249530;28;20758;-70
2023/07/13 03:34:38;;;;;;;20.48;17.67;;;20.00;99.90;;;;;;5249719;28;20107;-71
2023/07/13 03:37:09;;;;;;;21.52;19.33;;;20.00;99.90;;;;;;5248607;28;20450;-71
2023/07/13 03:39:40;;;;;;;21.73;19.52;;;20.00;99.90;;;;;;5249742;28;20055;-71
2023/07/13 03:42:11;;;;;;;23.42;20.95;;;20.00;99.90;;;;;;5249619;28;20078;-70
2023/07/13 03:44:45;;;;;;;22.80;19.88;;;20.10;99.90;;;;;;5249557;28;20033;-72
2023/07/13 03:47:16;;;;;;;21.65;19.40;;;20.00;99.90;;;;;;5249488;28;20094;-72
2023/07/13 03:49:47;;;;;;;20.75;18.58;;;20.20;99.90;;;;;;5249231;28;20472;-71
2023/07/13 03:52:18;;;;;;;24.17;19.77;;;20.20;99.90;;;;;;5249622;28;20051;-70
2023/07/13 03:54:49;;;;;;;22.88;20.58;;;20.50;99.90;;;;;;5249374;28;20027;-70
2023/07/13 03:57:19;;;;;;;22.63;20.33;;;20.30;99.90;;;;;;5249248;28;20032;-71
2023/07/13 03:59:50;;;;;;;22.85;20.60;;;20.30;99.90;;;;;;5248241;28;20341;-71
2023/07/13 04:02:21;;;;;;;23.60;21.17;;;20.50;99.90;;;;;;5249123;28;20051;-71
2023/07/13 04:04:53;;;;;;;23.17;20.88;;;20.50;99.90;;;;;;5249194;28;20116;-71
2023/07/13 04:07:24;;;;;;;23.75;21.33;;;20.80;99.90;;;;;;5249246;28;20024;-70
2023/07/13 04:09:54;;;;;;;24.38;21.83;;;20.80;99.90;;;;;;5249191;28;20023;-71
2023/07/13 04:12:25;;;;;;;24.80;22.45;;;20.80;99.90;;;;;;5249204;28;20502;-71
2023/07/13 04:14:56;;;;;;;24.95;22.40;;;20.80;99.90;;;;;;5249077;28;20024;-71
2023/07/13 04:17:27;;;;;;;24.15;21.75;;;21.00;99.90;;;;;;5249100;28;20119;-71
2023/07/13 04:19:58;;;;;;;23.77;21.27;;;21.20;99.90;;;;;;5248893;28;20033;-71
2023/07/13 04:22:28;;;;;;;22.95;20.73;;;21.30;99.90;;;;;;5249071;28;20046;-71
2023/07/13 04:24:59;;;;;;;21.85;19.60;;;21.50;99.90;;;;;;5248926;28;20024;-71
2023/07/13 04:27:30;;;;;;;26.55;21.67;;;21.40;99.90;;;;;;5248823;28;20424;-71
2023/07/13 04:30:01;;;;;;;24.95;22.20;;;21.50;99.90;;;;;;5248661;28;20021;-71
2023/07/13 04:32:32;;;;;;;25.25;22.55;;;21.60;99.90;;;;;;5248558;28;20032;-71
2023/07/13 04:35:04;;;;;;;24.65;22.05;;;21.70;99.90;;;;;;5248637;28;20032;-71
2023/07/13 04:37:35;;;;;;;31.15;24.95;;;21.70;99.90;;;;;;5248658;28;20029;-70
2023/07/13 04:40:09;;;;;;;27.83;24.83;;;21.80;99.90;;;;;;5248578;28;20032;-72
2023/07/13 04:42:40;;;;;;;26.80;23.92;;;22.00;99.90;;;;;;5248459;28;20032;-70
2023/07/13 04:45:12;;;;;;;31.45;25.85;;;22.10;99.90;;;;;;5249099;28;20102;-71
2023/07/13 04:47:43;;;;;;;29.20;25.92;;;22.30;99.90;;;;;;5248137;28;20032;-71
2023/07/13 04:50:20;;;;;;;29.17;24.83;;;22.30;99.90;;;;;;5248358;28;20456;-71
2023/07/13 04:52:51;;;;;;;29.75;25.70;;;22.50;99.90;;;;;;5248193;28;20067;-71
2023/07/13 04:55:22;;;;;;;29.20;26.08;;;22.60;99.90;;;;;;5248098;28;20060;-71
2023/07/13 04:57:53;;;;;;;31.13;25.55;;;22.90;99.90;;;;;;5248051;28;20036;-71
2023/07/13 05:00:24;;;;;;;31.17;26.00;;;23.00;99.90;;;;;;5247957;28;20063;-71
2023/07/13 05:02:57;;;;;;;25.65;22.67;;;23.20;99.90;;;;;;5247754;28;20041;-71
2023/07/13 05:05:29;;;;;;;25.92;22.48;;;23.30;99.90;;;;;;5247825;28;20044;-72
2023/07/13 05:08:00;;;;;;;26.77;20.85;;;23.40;99.90;;;;;;5248015;28;20490;-71
2023/07/13 05:10:31;;;;;;;25.95;21.25;;;23.60;99.90;;;;;;5247744;28;20032;-71
2023/07/13 05:13:02;;;;;;;26.15;21.30;;;23.70;99.90;;;;;;5247805;28;20368;-71
2023/07/13 05:15:33;;;;;;;28.75;23.75;;;23.80;99.90;;;;;;5247672;28;20091;-70
2023/07/13 05:18:04;;;;;;;28.20;23.63;;;24.10;99.90;;;;;;5247601;28;20025;-71
2023/07/13 05:20:35;;;;;;;25.50;21.88;;;24.20;99.90;;;;;;5247769;28;20021;-71
2023/07/13 05:23:06;;;;;;;37.88;24.90;;;24.20;99.90;;;;;;5247812;28;20434;-71
2023/07/13 05:25:37;;;;;;;24.45;21.80;;;24.40;99.90;;;;;;5247778;28;20448;-71
2023/07/13 05:28:07;;;;;;;28.63;22.80;;;24.60;99.90;;;;;;5247632;28;20560;-71
2023/07/13 05:30:38;;;;;;;29.13;24.25;;;24.70;99.90;;;;;;5247610;28;20043;-71
2023/07/13 05:33:09;;;;;;;26.95;24.05;;;24.90;99.90;;;;;;5247543;28;20099;-71
2023/07/13 05:35:40;;;;;;;32.75;26.55;;;25.00;99.90;;;;;;5247256;28;20045;-71
2023/07/13 05:38:11;;;;;;;29.10;23.73;;;25.20;99.90;;;;;;5247579;28;20013;-71
2023/07/13 05:40:45;;;;;;;26.98;22.75;;;25.30;99.90;;;;;;5247479;28;20028;-72
2023/07/13 05:43:16;;;;;;;25.58;21.80;;;25.40;99.90;;;;;;5247243;28;20019;-71
2023/07/13 05:45:47;;;;;;;26.50;22.85;;;25.60;99.90;;;;;;5246026;28;20032;-71
2023/07/13 05:48:18;;;;;;;26.45;21.05;;;25.90;99.90;;;;;;5247246;28;20358;-71
2023/07/13 05:50:49;;;;;;;24.27;21.58;;;25.90;99.90;;;;;;5247114;28;20038;-71
2023/07/13 05:53:20;;;;;;;25.75;22.13;;;26.10;99.90;;;;;;5247236;28;20020;-71
2023/07/13 05:55:53;;;;;;;23.52;20.50;;;26.30;99.90;;;;;;5247146;28;20024;-71
2023/07/13 05:58:25;;;;;;;23.23;20.75;;;26.40;99.90;;;;;;5247207;28;20036;-71
2023/07/13 06:01:07;;;;;;;22.38;19.50;;;26.70;99.90;;;;;;5245225;28;20491;-71
2023/07/13 06:03:38;;;;;;;20.35;18.35;;;26.80;99.90;;;;;;5246926;28;20120;-71
2023/07/13 06:06:09;;;;;;;20.48;17.30;;;26.90;99.90;;;;;;5247030;28;20120;-71
2023/07/13 06:08:40;;;;;;;19.70;16.85;;;27.00;99.90;;;;;;5246900;28;20025;-71
2023/07/13 06:11:17;;;;;;;18.95;16.95;;;27.10;99.90;;;;;;5247054;28;20043;-70
2023/07/13 06:13:49;;;;;;;22.73;16.63;;;27.40;99.90;;;;;;5246987;28;20029;-71
2023/07/13 06:16:20;;;;;;;24.25;17.48;;;27.40;99.90;;;;;;5247072;28;20029;-71
2023/07/13 06:18:51;;;;;;;22.38;17.20;;;27.60;99.90;;;;;;5246893;28;20074;-70
2023/07/13 06:21:23;;;;;;;19.65;17.73;;;27.80;99.90;;;;;;5246829;28;20453;-71
2023/07/13 06:23:54;;;;;;;20.60;18.50;;;27.90;99.90;;;;;;5246926;28;20115;-71
2023/07/13 06:26:28;;;;;;;21.48;18.50;;;28.00;99.90;;;;;;5246886;28;20103;-71
2023/07/13 06:28:59;;;;;;;19.50;16.63;;;28.10;99.90;;;;;;5246972;28;20031;-71
2023/07/13 06:31:31;;;;;;;21.60;16.67;;;28.10;99.90;;;;;;5246531;28;20045;-71
2023/07/13 06:34:01;;;;;;;20.23;17.02;;;28.30;99.90;;;;;;5246800;28;20465;-71
2023/07/13 06:36:32;;;;;;;19.67;16.63;;;28.50;99.90;;;;;;5246987;28;20020;-71
2023/07/13 06:39:03;;;;;;;20.15;16.33;;;28.50;99.90;;;;;;5247107;28;20021;-71
2023/07/13 06:41:34;;;;;;;18.42;16.42;;;28.70;99.90;;;;;;5246966;28;20108;-71
2023/07/13 06:44:06;;;;;;;21.63;17.05;;;28.80;99.90;;;;;;5246889;28;20041;-70
2023/07/13 06:46:37;;;;;;;20.40;17.35;;;28.90;99.90;;;;;;5246821;28;20388;-71
2023/07/13 06:49:09;;;;;;;23.05;18.98;;;28.90;99.90;;;;;;5246848;28;20024;-71
2023/07/13 06:51:40;;;;;;;19.17;17.17;;;28.90;99.90;;;;;;5246708;28;20083;-71
2023/07/13 06:54:10;;;;;;;25.95;19.15;;;29.10;99.90;;;;;;5246777;28;20021;-71
2023/07/13 06:56:41;;;;;;;24.73;18.27;;;29.10;99.90;;;;;;5245324;28;20496;-71
2023/07/13 06:59:12;;;;;;;20.42;17.20;;;29.20;99.90;;;;;;5246594;28;20036;-71
2023/07/13 07:01:43;;;;;;;17.15;15.35;;;29.40;99.90;;;;;;5246426;28;20035;-71
2023/07/13 07:04:13;;;;;;;17.40;15.63;;;29.40;99.90;;;;;;5246335;28;20131;-70
2023/07/13 07:06:45;;;;;;;19.05;16.15;;;29.40;99.90;;;;;;5246551;28;20025;-71
2023/07/13 07:09:16;;;;;;;17.77;15.85;;;29.60;99.90;;;;;;5246477;28;20020;-70
2023/07/13 07:11:47;;;;;;;22.77;16.45;;;29.60;99.90;;;;;;5249000;28;20101;-71
2023/07/13 07:14:18;;;;;;;22.63;18.42;;;29.80;99.90;;;;;;5250281;28;20028;-71
2023/07/13 07:16:49;;;;;;;19.05;15.35;;;29.80;99.90;;;;;;5250128;28;20051;-71
2023/07/13 07:19:20;;;;;;;19.90;15.18;;;29.80;99.90;;;;;;5250083;28;20035;-71
2023/07/13 07:21:51;;;;;;;16.05;13.82;;;29.80;99.90;;;;;;5250305;28;20021;-72
2023/07/13 07:24:22;;;;;;;15.93;13.93;;;30.10;99.90;;;;;;5249893;28;20025;-71
2023/07/13 07:26:53;;;;;;;17.90;16.00;;;30.20;99.90;;;;;;5250065;28;20421;-71
2023/07/13 07:29:26;;;;;;;17.35;15.23;;;30.30;99.90;;;;;;5249981;28;20021;-71
2023/07/13 07:31:58;;;;;;;21.25;15.77;;;30.20;99.90;;;;;;5249593;28;20041;-71
2023/07/13 07:34:30;;;;;;;17.73;14.95;;;30.40;99.90;;;;;;5249867;28;20033;-70
2023/07/13 07:37:02;;;;;;;16.73;14.80;;;30.60;99.90;;;;;;5249725;28;20107;-71
2023/07/13 07:39:33;;;;;;;20.08;14.98;;;30.60;99.90;;;;;;5249774;28;20024;-71
2023/07/13 07:42:04;;;;;;;19.23;15.05;;;30.50;99.90;;;;;;5249665;28;20373;-71
2023/07/13 07:44:35;;;;;;;16.83;14.45;;;30.70;99.90;;;;;;5249622;28;20361;-71
2023/07/13 07:47:06;;;;;;;17.52;14.02;;;30.70;99.90;;;;;;5249587;28;20028;-72
2023/07/13 07:49:38;;;;;;;28.00;14.90;;;30.80;99.90;;;;;;5249485;28;20024;-71
2023/07/13 07:52:08;;;;;;;16.13;13.07;;;31.00;99.90;;;;;;5248418;28;20048;-70
2023/07/13 07:54:39;;;;;;;17.88;13.93;;;31.00;99.90;;;;;;5249806;28;20021;-71
2023/07/13 07:57:10;;;;;;;16.67;14.05;;;31.00;99.90;;;;;;5249524;28;20032;-71
2023/07/13 07:59:41;;;;;;;17.80;13.30;;;31.20;99.90;;;;;;5249528;28;20024;-72
2023/07/13 08:02:12;;;;;;;16.48;13.20;;;31.20;99.90;;;;;;5249044;28;20480;-71
2023/07/13 08:04:43;;;;;;;18.98;14.90;;;31.30;99.90;;;;;;5249276;28;20044;-71
2023/07/13 08:07:14;;;;;;;19.05;13.98;;;31.30;99.90;;;;;;5249250;28;20640;-72
2023/07/13 08:09:46;;;;;;;16.40;14.68;;;31.40;99.90;;;;;;5249245;28;20059;-71
2023/07/13 08:12:17;;;;;;;20.92;15.02;;;31.60;99.90;;;;;;5249117;28;20567;-71
2023/07/13 08:14:53;;;;;;;20.73;15.43;;;31.70;99.90;;;;;;5249124;28;20217;-71
2023/07/13 08:17:25;;;;;;;22.95;16.55;;;31.80;99.90;;;;;;5247923;28;20625;-71
2023/07/13 08:19:55;;;;;;;17.88;15.52;;;31.90;99.90;;;;;;5247770;28;20481;-71
2023/07/13 08:22:27;;;;;;;20.27;16.50;;;32.00;99.90;;;;;;5248412;28;20032;-71
2023/07/13 08:24:59;;;;;;;21.92;16.15;;;32.10;99.90;;;;;;5247414;28;20077;-71
2023/07/13 08:27:30;;;;;;;24.58;15.98;;;32.00;99.90;;;;;;5248721;28;20033;-71
2023/07/13 08:30:01;;;;;;;21.60;14.10;;;32.30;99.90;;;;;;5248533;28;20361;-71
2023/07/13 08:32:32;;;;;;;17.27;14.52;;;32.20;99.90;;;;;;5248669;28;20124;-71
2023/07/13 08:35:03;;;;;;;22.02;14.02;;;32.10;99.90;;;;;;5248670;28;20043;-71
2023/07/13 08:37:34;;;;;;;21.52;13.82;;;32.20;99.90;;;;;;5248715;28;20111;-71
2023/07/13 08:40:06;;;;;;;18.67;13.43;;;32.20;99.90;;;;;;5248591;28;20108;-72
2023/07/13 08:42:58;;;;;;;17.70;13.43;;;32.10;99.90;;;;;;5248513;28;20025;-71
2023/07/13 08:45:45;;;;;;;16.83;13.27;;;32.30;99.90;;;;;;5248460;28;20056;-71
2023/07/13 08:48:44;;;;;;;21.75;13.43;;;32.50;99.90;;;;;;5247035;28;20464;-70
2023/07/13 08:51:25;;;;;;;;;;;32.70;99.90;;;;;;5248062;28;20101;-71
2023/07/13 08:54:01;;;;;;;20.58;15.80;;;32.50;99.90;;;;;;5248252;28;19994;-70
2023/07/13 08:56:33;;;;;;;18.48;15.23;;;32.70;99.90;;;;;;5246924;28;20021;-71
2023/07/13 08:59:16;;;;;;;16.90;14.95;;;32.70;99.90;;;;;;5248294;28;20021;-71
2023/07/13 09:01:55;;;;;;;16.65;14.07;;;32.70;99.90;;;;;;5247854;28;20025;-71
2023/07/13 09:04:33;;;;;;;22.60;13.20;;;32.90;99.90;;;;;;5248164;28;20115;-71
2023/07/13 09:07:26;;;;;;;19.02;13.73;;;32.90;99.90;;;;;;5248102;28;20021;-70
2023/07/13 09:10:06;;;;;;;22.10;14.23;;;33.00;99.90;;;;;;5248046;28;20028;-71
2023/07/13 09:12:51;;;;;;;17.30;13.98;;;33.10;99.90;;;;;;5248405;28;20043;-71
2023/07/13 09:15:24;;;;;;;23.55;13.18;;;33.30;99.90;;;;;;5246741;28;20464;-71
2023/07/13 09:18:00;;;;;;;17.48;12.50;;;33.20;99.90;;;;;;5246594;28;20028;-71
2023/07/13 09:20:37;;;;;;;17.42;13.63;;;33.30;99.90;;;;;;5247865;28;20021;-70
2023/07/13 09:23:17;;;;;;;14.57;13.02;;;33.40;99.90;;;;;;5247898;28;20551;-71
2023/07/13 09:25:58;;;;;;;17.95;13.45;;;33.50;99.90;;;;;;5248029;28;20029;-71
2023/07/13 09:28:43;;;;;;;14.77;13.32;;;33.40;99.90;;;;;;5247652;28;20032;-71
2023/07/13 09:31:38;;;;;;;16.42;14.32;;;33.60;99.90;;;;;;5246052;28;20067;-71
2023/07/13 09:34:13;;;;;;;18.85;13.43;;;33.70;99.90;;;;;;5246776;28;20032;-71
2023/07/13 09:36:44;;;;;;;13.98;12.60;;;33.50;99.90;;;;;;5247499;28;20107;-71
2023/07/13 09:39:29;;;;;;;14.95;13.00;;;33.60;99.90;;;;;;5247409;28;20021;-71
2023/07/13 09:42:18;;;;;;;21.75;12.82;;;33.40;99.90;;;;;;5247423;28;20136;-71
2023/07/13 09:44:52;;;;;;;13.82;11.73;;;33.60;99.90;;;;;;5247354;28;20130;-70
2023/07/13 09:47:27;;;;;;;19.98;12.07;;;33.70;99.90;;;;;;5247228;28;20380;-71
2023/07/13 09:50:02;;;;;;;16.05;12.10;;;33.60;99.90;;;;;;5247289;28;20033;-71
2023/07/13 09:52:46;;;;;;;15.82;11.65;;;33.60;99.90;;;;;;5247209;28;20076;-71
2023/07/13 09:55:30;;;;;;;17.33;12.18;;;33.90;99.90;;;;;;5247148;28;20021;-71
2023/07/13 09:58:10;;;;;;;18.08;12.52;;;33.80;99.90;;;;;;5247235;28;20027;-71
2023/07/13 10:00:44;;;;;;;15.90;11.57;;;34.10;99.90;;;;;;5247036;28;20032;-71
2023/07/13 10:03:18;;;;;;;15.45;12.35;;;34.00;99.90;;;;;;5246856;28;20049;-71
2023/07/13 10:05:51;;;;;;;14.77;12.15;;;34.00;99.90;;;;;;5246951;28;20492;-71
2023/07/13 10:08:27;;;;;;;17.30;12.50;;;34.10;99.90;;;;;;5247242;28;20515;-71
2023/07/13 10:11:00;;;;;;;13.90;12.35;;;34.00;99.90;;;;;;5246968;28;20044;-71
2023/07/13 10:13:40;;;;;;;17.65;11.48;;;34.30;99.90;;;;;;5246935;28;20557;-71
2023/07/13 10:16:11;;;;;;;13.88;12.45;;;34.30;99.90;;;;;;5246925;28;20503;-71
2023/07/13 10:18:53;;;;;;;18.08;13.75;;;34.30;97.90;;;;;;5246959;28;20031;-71
2023/07/13 10:21:39;;;;;;;16.98;13.27;;;34.20;98.40;;;;;;5247160;28;20372;-71
2023/07/13 10:24:18;;;;;;;16.17;13.43;;;34.30;98.50;;;;;;5247170;28;20450;-71
2023/07/13 10:27:11;;;;;;;15.63;14.10;;;34.40;98.00;;;;;;5247389;28;20082;-71
2023/07/13 10:30:29;;;;;;;16.48;14.30;;;34.50;95.80;;;;;;5246896;28;20028;-71
2023/07/13 10:33:02;;;;;;;18.25;14.77;;;34.30;94.90;;;;;;5182707;28;20042;-71
2023/07/13 10:35:34;;;;;;;19.20;14.93;;;34.30;95.70;;;;;;5242225;28;20048;-71
2023/07/13 10:38:10;;;;;;;17.20;15.50;;;34.60;96.40;;;;;;5246877;28;20085;-71
2023/07/13 10:40:52;;;;;;;18.33;16.15;;;34.60;94.40;;;;;;5246820;28;20037;-70
2023/07/13 10:43:37;;;;;;;18.13;16.25;;;34.70;96.40;;;;;;5246846;28;20073;-70
2023/07/13 10:46:12;;;;;;;18.92;16.65;;;34.60;94.40;;;;;;5248198;28;20089;-71
2023/07/13 10:48:46;;;;;;;16.63;15.10;;;34.70;95.30;;;;;;5250737;28;20090;-71
2023/07/13 10:51:21;;;;;;;19.08;16.52;;;34.70;93.90;;;;;;5250660;28;20039;-70
2023/07/13 10:54:23;;;;;;;17.55;15.57;;;35.10;95.10;;;;;;5250720;28;20020;-71
2023/07/13 10:57:13;;;;;;;19.98;15.20;;;34.80;94.50;;;;;;5250636;28;20153;-71
2023/07/13 11:00:08;;;;;;;16.88;15.23;;;34.90;93.10;;;;;;5250426;28;20017;-71
2023/07/13 11:02:39;;;;;;;17.48;15.68;;;34.80;93.90;;;;;;5249946;28;20048;-71
2023/07/13 11:05:25;;;;;;;17.65;14.32;;;35.10;94.00;;;;;;5250526;28;20032;-71
2023/07/13 11:08:13;;;;;;;14.80;13.30;;;34.90;90.70;;;;;;5250237;28;20185;-71
2023/07/13 11:10:55;;;;;;;16.05;13.10;;;35.10;92.20;;;;;;5250322;28;20021;-71
2023/07/13 11:13:45;;;;;;;16.50;12.43;;;35.10;92.40;;;;;;5250248;28;20028;-71
2023/07/13 11:16:16;;;;;;;16.20;11.85;;;35.20;91.90;;;;;;5250188;28;20556;-71
2023/07/13 11:18:51;;;;;;;13.65;12.05;;;34.80;89.60;;;;;;5249970;28;20621;-71
2023/07/13 11:21:26;;;;;;;15.48;12.73;;;35.10;89.30;;;;;;5250065;28;20081;-71
2023/07/13 11:24:16;;;;;;;18.42;13.02;;;35.10;88.70;;;;;;5250009;28;21040;-70
2023/07/13 11:26:47;;;;;;;16.65;11.85;;;35.30;90.50;;;;;;5250017;28;20033;-71
2023/07/13 11:29:17;;;;;;;13.98;12.57;;;35.20;89.60;;;;;;5249932;28;20024;-70
2023/07/13 11:31:54;;;;;;;13.35;11.80;;;35.10;87.70;;;;;;5249924;28;20041;-70
2023/07/13 11:34:33;;;;;;;15.68;12.27;;;35.20;88.40;;;;;;5249896;28;20031;-70
2023/07/13 11:37:12;;;;;;;14.80;11.75;;;35.30;89.00;;;;;;5250157;28;20036;-70
2023/07/13 11:39:44;;;;;;;17.13;13.20;;;35.10;90.30;;;;;;5250116;28;20055;-70
2023/07/13 11:42:18;;;;;;;14.15;11.93;;;35.10;87.60;;;;;;5249878;28;20047;-71
2023/07/13 11:44:51;;;;;;;14.55;12.80;;;35.10;87.20;;;;;;5249797;28;20037;-71
2023/07/13 11:47:23;;;;;;;13.55;11.93;;;35.10;86.80;;;;;;5249547;28;20071;-70
2023/07/13 11:49:59;;;;;;;17.30;12.98;;;35.10;84.80;;;;;;5249678;28;20487;-71
2023/07/13 11:52:39;;;;;;;16.15;12.20;;;35.20;87.70;;;;;;5249524;28;20047;-71
2023/07/13 11:55:15;;;;;;;17.60;12.18;;;35.40;85.30;;;;;;5249663;28;20334;-71
2023/07/13 11:57:59;;;;;;;15.20;13.05;;;35.40;87.10;;;;;;5248806;28;20373;-70
2023/07/13 12:00:33;;;;;;;15.90;12.70;;;35.40;86.80;;;;;;5249507;28;20036;-71
2023/07/13 12:03:05;;;;;;;17.13;12.27;;;35.50;85.10;;;;;;5249019;28;20048;-70
2023/07/13 12:05:36;;;;;;;16.75;12.07;;;35.40;85.20;;;;;;5249214;28;20094;-70
2023/07/13 12:08:11;;;;;;;14.68;12.57;;;35.40;83.10;;;;;;5249210;28;20120;-71
2023/07/13 12:10:42;;;;;;;15.10;12.43;;;35.40;83.30;;;;;;5249069;28;20403;-70
2023/07/13 12:13:13;;;;;;;15.07;11.98;;;35.20;83.30;;;;;;5249199;28;20118;-71
2023/07/13 12:15:49;;;;;;;17.23;11.82;;;35.40;83.10;;;;;;5249060;28;20044;-71
2023/07/13 12:18:23;;;;;;;16.50;12.20;;;35.80;83.50;;;;;;5249001;28;20079;-71
2023/07/13 12:20:57;;;;;;;13.20;11.52;;;35.60;82.10;;;;;;5249078;28;20025;-71
2023/07/13 12:23:31;;;;;;;13.30;11.15;;;35.70;84.60;;;;;;5248974;28;20020;-70
2023/07/13 12:26:05;;;;;;;16.13;12.57;;;35.40;79.60;;;;;;5248765;28;20025;-71
2023/07/13 12:28:54;;;;;;;16.75;14.05;;;35.50;80.90;;;;;;5248800;28;20367;-70
2023/07/13 12:31:33;;;;;;;14.35;12.93;;;35.40;81.20;;;;;;5248496;28;20032;-71
2023/07/13 12:34:13;;;;;;;15.20;12.30;;;35.60;81.20;;;;;;5248691;28;20040;-70
2023/07/13 12:36:50;;;;;;;18.98;13.27;;;35.40;80.30;;;;;;5248734;28;20036;-71
2023/07/13 12:39:27;;;;;;;17.00;12.63;;;35.40;80.00;;;;;;5248867;28;20029;-71
2023/07/13 12:42:17;;;;;;;16.95;12.38;;;35.80;81.10;;;;;;5248681;28;20032;-71
2023/07/13 12:44:48;;;;;;;13.90;12.07;;;35.30;79.20;;;;;;5248586;28;20078;-71
2023/07/13 12:47:21;;;;;;;17.00;12.65;;;35.60;79.80;;;;;;5248352;28;20024;-70
2023/07/13 12:49:59;;;;;;;15.75;12.75;;;35.50;78.80;;;;;;5248389;28;20396;-70
2023/07/13 12:52:32;;;;;;;14.70;12.70;;;35.50;79.40;;;;;;5248258;28;20044;-70
2023/07/13 12:55:14;;;;;;;14.40;12.90;;;35.40;78.70;;;;;;5248311;28;20555;-71
2023/07/13 12:57:58;;;;;;;15.63;12.35;;;35.60;81.10;;;;;;5248354;28;20020;-71
2023/07/13 13:00:37;;;;;;;14.02;12.43;;;35.60;79.60;;;;;;5248123;28;20020;-70
2023/07/13 13:03:25;;;;;;;19.63;14.63;;;35.60;80.00;;;;;;5247905;28;20040;-70